createdAt,value
2022-10-10T00:01:15.783Z,54.53
2022-10-10T00:03:43.887Z,54.01
2022-10-10T00:06:13.065Z,54.39
2022-10-10T00:08:41.737Z,54.55
2022-10-10T00:11:09.648Z,54.30
2022-10-10T00:13:38.309Z,54.56
2022-10-10T00:16:06.808Z,54.57
2022-10-10T00:18:36.078Z,54.62
2022-10-10T00:21:03.969Z,54.33
2022-10-10T00:23:31.710Z,54.58
2022-10-10T00:25:59.860Z,54.60
2022-10-10T00:28:27.822Z,54.42
2022-10-10T00:30:56.071Z,54.60
2022-10-10T00:33:23.990Z,54.23
2022-10-10T00:35:53.123Z,54.21
2022-10-10T00:38:20.822Z,54.54
2022-10-10T00:40:50.147Z,54.35
2022-10-10T00:43:19.495Z,54.40
2022-10-10T00:45:48.463Z,54.45
2022-10-10T00:48:19.341Z,54.58
2022-10-10T00:50:51.967Z,54.30
2022-10-10T00:53:24.557Z,54.24
2022-10-10T00:55:53.280Z,54.74
2022-10-10T00:58:22.540Z,54.63
2022-10-10T01:00:50.565Z,54.25
2022-10-10T01:03:18.299Z,54.54
2022-10-10T01:05:47.186Z,54.77
2022-10-10T01:08:15.951Z,54.54
2022-10-10T01:10:55.551Z,54.37
2022-10-10T01:13:34.018Z,54.55
2022-10-10T01:16:08.256Z,54.56
2022-10-10T01:18:44.714Z,54.56
2022-10-10T01:21:21.720Z,54.69
2022-10-10T01:24:09.573Z,54.50
2022-10-10T01:27:12.628Z,54.35
2022-10-10T01:29:46.145Z,54.42
2022-10-10T01:32:18.298Z,54.70
2022-10-10T01:34:56.553Z,54.33
2022-10-10T01:37:35.792Z,54.55
2022-10-10T01:40:10.338Z,54.35
2022-10-10T01:42:43.346Z,54.55
2022-10-10T01:45:12.621Z,54.42
2022-10-10T01:47:40.360Z,54.58
2022-10-10T01:50:12.668Z,54.41
2022-10-10T01:52:53.314Z,54.40
2022-10-10T01:55:35.338Z,54.65
2022-10-10T01:58:19.744Z,54.55
2022-10-10T02:00:59.636Z,54.42
2022-10-10T02:03:31.170Z,54.60
2022-10-10T02:06:01.832Z,54.50
2022-10-10T02:08:34.706Z,54.65
2022-10-10T02:11:05.469Z,54.58
2022-10-10T02:13:39.557Z,54.92
2022-10-10T02:16:14.432Z,54.92
2022-10-10T02:18:46.026Z,54.54
2022-10-10T02:21:15.923Z,54.80
2022-10-10T02:23:44.779Z,54.69
2022-10-10T02:26:14.629Z,54.58
2022-10-10T02:28:49.387Z,54.69
2022-10-10T02:31:22.475Z,54.61
2022-10-10T02:33:56.504Z,54.52
2022-10-10T02:36:26.090Z,54.64
2022-10-10T02:38:55.145Z,54.97
2022-10-10T02:41:24.047Z,54.51
2022-10-10T02:43:53.249Z,55.01
2022-10-10T02:46:22.694Z,55.04
2022-10-10T02:48:50.464Z,54.65
2022-10-10T02:51:18.519Z,54.72
2022-10-10T02:53:47.619Z,54.62
2022-10-10T02:56:15.317Z,54.71
2022-10-10T02:58:43.147Z,55.07
2022-10-10T03:01:11.763Z,54.55
2022-10-10T03:03:40.852Z,54.73
2022-10-10T03:06:09.043Z,54.95
2022-10-10T03:08:38.448Z,54.73
2022-10-10T03:11:08.026Z,54.81
2022-10-10T03:13:35.715Z,54.90
2022-10-10T03:16:04.420Z,54.70
2022-10-10T03:18:32.148Z,55.15
2022-10-10T03:21:01.267Z,54.89
2022-10-10T03:23:28.988Z,54.99
2022-10-10T03:25:56.705Z,54.70
2022-10-10T03:28:24.755Z,55.11
2022-10-10T03:30:52.534Z,54.76
2022-10-10T03:33:20.329Z,54.86
2022-10-10T03:35:48.206Z,54.84
2022-10-10T03:38:17.459Z,55.11
2022-10-10T03:40:46.124Z,55.08
2022-10-10T03:43:15.599Z,55.26
2022-10-10T03:45:44.440Z,55.15
2022-10-10T03:48:12.767Z,54.98
2022-10-10T03:50:40.827Z,55.33
2022-10-10T03:53:08.784Z,55.24
2022-10-10T03:55:40.280Z,55.42
2022-10-10T03:58:08.038Z,55.38
2022-10-10T04:00:36.208Z,54.99
2022-10-10T04:03:06.479Z,55.28
2022-10-10T04:05:35.322Z,55.22
2022-10-10T04:08:03.466Z,55.31
2022-10-10T04:10:31.474Z,55.38
2022-10-10T04:13:00.596Z,55.14
2022-10-10T04:15:28.421Z,55.53
2022-10-10T04:17:56.119Z,55.26
2022-10-10T04:20:24.167Z,55.59
2022-10-10T04:22:52.206Z,55.62
2022-10-10T04:25:20.166Z,55.16
2022-10-10T04:27:47.885Z,55.33
2022-10-10T04:30:17.505Z,55.58
2022-10-10T04:32:45.202Z,55.29
2022-10-10T04:35:13.131Z,55.37
2022-10-10T04:37:40.825Z,55.71
2022-10-10T04:40:09.957Z,55.66
2022-10-10T04:42:37.733Z,55.70
2022-10-10T04:45:06.952Z,55.48
2022-10-10T04:47:36.111Z,55.59
2022-10-10T04:50:04.161Z,55.55
2022-10-10T04:52:32.451Z,55.81
2022-10-10T04:55:00.308Z,56.13
2022-10-10T04:57:28.005Z,55.93
2022-10-10T04:59:55.724Z,55.85
2022-10-10T05:02:23.447Z,56.11
2022-10-10T05:04:52.556Z,56.10
2022-10-10T05:07:20.328Z,56.04
2022-10-10T05:09:48.166Z,55.67
2022-10-10T05:12:16.244Z,55.58
2022-10-10T05:14:48.002Z,55.57
2022-10-10T05:17:16.241Z,56.08
2022-10-10T05:19:44.286Z,55.99
2022-10-10T05:22:13.408Z,55.79
2022-10-10T05:24:41.359Z,55.94
2022-10-10T05:27:09.116Z,56.10
2022-10-10T05:29:36.927Z,56.00
2022-10-10T05:32:09.313Z,56.07
2022-10-10T05:34:38.507Z,56.17
2022-10-10T05:37:06.232Z,56.20
2022-10-10T05:39:35.318Z,55.91
2022-10-10T05:42:03.492Z,56.30
2022-10-10T05:44:31.418Z,56.28
2022-10-10T05:46:59.188Z,55.88
2022-10-10T05:49:26.909Z,56.30
2022-10-10T05:51:54.620Z,56.05
2022-10-10T05:54:22.481Z,56.38
2022-10-10T05:56:51.599Z,55.93
2022-10-10T05:59:19.640Z,56.32
2022-10-10T06:01:47.666Z,56.25
2022-10-10T06:04:15.558Z,56.07
2022-10-10T06:06:43.659Z,56.20
2022-10-10T06:09:11.498Z,56.38
2022-10-10T06:11:39.237Z,56.42
2022-10-10T06:14:08.520Z,56.96
2022-10-10T06:16:36.972Z,57.00
2022-10-10T06:19:05.160Z,56.82
2022-10-10T06:21:33.037Z,56.90
2022-10-10T06:24:00.803Z,56.76
2022-10-10T06:26:28.623Z,56.55
2022-10-10T06:28:56.366Z,56.64
2022-10-10T06:31:25.529Z,56.69
2022-10-10T06:33:53.278Z,56.62
2022-10-10T06:36:21.252Z,57.25
2022-10-10T06:38:49.034Z,57.06
2022-10-10T06:41:16.842Z,56.99
2022-10-10T06:43:44.641Z,56.80
2022-10-10T06:46:13.404Z,56.67
2022-10-10T06:48:42.531Z,57.07
2022-10-10T06:51:14.103Z,57.03
2022-10-10T06:53:42.038Z,56.83
2022-10-10T06:56:15.841Z,56.71
2022-10-10T06:58:43.871Z,57.10
2022-10-10T07:01:12.859Z,57.05
2022-10-10T07:03:42.160Z,57.12
2022-10-10T07:06:11.664Z,56.78
2022-10-10T07:08:40.490Z,56.96
2022-10-10T07:11:09.091Z,57.07
2022-10-10T07:13:38.128Z,56.88
2022-10-10T07:16:06.680Z,57.16
2022-10-10T07:18:36.851Z,57.19
2022-10-10T07:21:06.873Z,57.23
2022-10-10T07:23:36.670Z,57.35
2022-10-10T07:26:06.872Z,57.15
2022-10-10T07:28:35.076Z,57.47
2022-10-10T07:31:05.760Z,57.62
2022-10-10T07:33:34.872Z,57.47
2022-10-10T07:36:02.628Z,57.47
2022-10-10T07:38:31.759Z,57.26
2022-10-10T07:40:59.778Z,57.45
2022-10-10T07:43:27.710Z,57.64
2022-10-10T07:45:55.879Z,57.31
2022-10-10T07:48:23.717Z,57.42
2022-10-10T07:50:51.490Z,57.25
2022-10-10T07:53:19.305Z,56.72
2022-10-10T07:55:48.558Z,56.23
2022-10-10T07:58:16.383Z,55.75
2022-10-10T08:00:44.204Z,55.25
2022-10-10T08:03:12.878Z,54.67
2022-10-10T08:05:41.264Z,54.64
2022-10-10T08:08:09.306Z,54.62
2022-10-10T08:10:37.103Z,55.62
2022-10-10T08:13:06.449Z,55.28
2022-10-10T08:15:34.308Z,55.64
2022-10-10T08:18:02.404Z,56.51
2022-10-10T08:20:30.230Z,56.90
2022-10-10T08:22:58.084Z,57.24
2022-10-10T08:25:26.325Z,57.61
2022-10-10T08:27:54.161Z,57.12
2022-10-10T08:30:23.283Z,57.39
2022-10-10T08:32:51.272Z,57.42
2022-10-10T08:35:19.244Z,57.41
2022-10-10T08:37:47.050Z,57.70
2022-10-10T08:40:17.253Z,57.74
2022-10-10T08:42:52.825Z,58.08
2022-10-10T08:45:25.806Z,58.64
2022-10-10T08:47:57.319Z,58.51
2022-10-10T08:50:28.930Z,58.55
2022-10-10T08:53:00.112Z,58.56
2022-10-10T08:55:33.557Z,58.76
2022-10-10T08:58:06.904Z,59.73
2022-10-10T09:00:42.991Z,59.87
2022-10-10T09:03:20.965Z,60.02
2022-10-10T09:06:05.096Z,59.50
2022-10-10T09:08:46.379Z,59.55
2022-10-10T09:11:26.764Z,59.12
2022-10-10T09:14:08.992Z,59.80
2022-10-10T09:16:45.502Z,59.08
2022-10-10T09:19:27.646Z,59.54
2022-10-10T09:22:00.882Z,59.94
2022-10-10T09:24:34.304Z,59.69
2022-10-10T09:27:05.294Z,60.06
2022-10-10T09:29:39.869Z,60.40
2022-10-10T09:32:15.466Z,60.28
2022-10-10T09:34:46.852Z,59.72
2022-10-10T09:37:29.446Z,60.01
2022-10-10T09:40:15.797Z,60.07
2022-10-10T09:42:45.529Z,60.25
2022-10-10T09:45:19.977Z,59.86
2022-10-10T09:47:53.352Z,60.27
2022-10-10T09:50:21.265Z,60.43
2022-10-10T09:52:50.286Z,60.41
2022-10-10T09:55:31.885Z,61.45
2022-10-10T09:58:11.801Z,60.76
2022-10-10T10:00:39.746Z,61.12
2022-10-10T10:03:13.941Z,61.44
2022-10-10T10:05:44.984Z,61.58
2022-10-10T10:08:27.533Z,61.45
2022-10-10T10:10:58.794Z,61.29
2022-10-10T10:13:30.615Z,61.05
2022-10-10T10:16:05.593Z,60.78
2022-10-10T10:18:40.946Z,60.75
2022-10-10T10:21:19.314Z,60.96
2022-10-10T10:23:53.754Z,60.80
2022-10-10T10:26:24.428Z,61.16
2022-10-10T10:28:53.712Z,61.00
2022-10-10T10:31:32.067Z,61.43
2022-10-10T10:34:11.979Z,61.44
2022-10-10T10:36:46.844Z,61.42
2022-10-10T10:39:29.882Z,61.09
2022-10-10T10:42:03.862Z,61.20
2022-10-10T10:44:41.500Z,61.31
2022-10-10T10:47:24.451Z,60.83
2022-10-10T10:50:05.595Z,61.34
2022-10-10T10:52:44.350Z,60.92
2022-10-10T10:55:39.345Z,61.23
2022-10-10T11:01:55.356Z,61.38
2022-10-10T11:05:24.257Z,61.22
2022-10-10T11:07:26.271Z,61.04
2022-10-10T11:10:01.635Z,61.86
2022-10-10T11:12:46.171Z,61.20
2022-10-10T11:15:19.852Z,61.51
2022-10-10T11:17:56.524Z,61.39
2022-10-10T11:20:27.595Z,61.33
2022-10-10T11:23:08.844Z,61.51
2022-10-10T11:25:44.367Z,61.25
2022-10-10T11:28:17.107Z,61.14
2022-10-10T11:30:50.233Z,61.61
2022-10-10T11:33:23.237Z,62.40
2022-10-10T11:35:56.235Z,62.64
2022-10-10T11:38:32.614Z,62.44
2022-10-10T11:41:04.896Z,62.63
2022-10-10T11:43:41.248Z,62.69
2022-10-10T11:46:25.714Z,62.53
2022-10-10T11:48:59.132Z,62.84
2022-10-10T11:51:47.137Z,62.90
2022-10-10T11:54:25.831Z,62.76
2022-10-10T11:56:59.589Z,63.40
2022-10-10T11:59:31.887Z,63.51
2022-10-10T12:02:02.217Z,63.19
2022-10-10T12:04:35.872Z,63.07
2022-10-10T12:07:08.317Z,64.19
2022-10-10T12:09:43.198Z,63.50
2022-10-10T12:12:15.938Z,63.27
2022-10-10T12:14:48.252Z,63.84
2022-10-10T12:17:22.452Z,63.46
2022-10-10T12:19:52.565Z,63.68
2022-10-10T12:22:25.824Z,63.46
2022-10-10T12:25:24.481Z,64.54
2022-10-10T12:28:07.035Z,64.16
2022-10-10T12:30:34.943Z,64.17
2022-10-10T12:33:02.751Z,64.01
2022-10-10T12:35:41.731Z,64.29
2022-10-10T12:38:15.516Z,64.18
2022-10-10T12:41:06.919Z,63.78
2022-10-10T12:43:49.261Z,64.44
2022-10-10T12:46:35.502Z,65.71
2022-10-10T12:49:19.059Z,65.37
2022-10-10T12:52:01.121Z,65.25
2022-10-10T12:54:33.745Z,65.82
2022-10-10T12:57:16.941Z,65.54
2022-10-10T12:59:44.756Z,65.86
2022-10-10T13:02:19.532Z,65.90
2022-10-10T13:04:49.342Z,66.02
2022-10-10T13:07:20.258Z,66.56
2022-10-10T13:09:50.020Z,66.33
2022-10-10T13:12:28.458Z,66.13
2022-10-10T13:14:57.554Z,66.09
2022-10-10T13:17:28.353Z,65.51
2022-10-10T13:19:58.339Z,65.03
2022-10-10T13:22:27.280Z,65.28
2022-10-10T13:24:55.932Z,64.92
2022-10-10T13:27:27.581Z,65.07
2022-10-10T13:29:56.455Z,64.83
2022-10-10T13:32:28.061Z,65.00
2022-10-10T13:34:58.843Z,64.60
2022-10-10T13:37:27.500Z,65.40
2022-10-10T13:39:55.775Z,65.43
2022-10-10T13:42:33.069Z,65.76
2022-10-10T13:45:03.144Z,65.86
2022-10-10T13:47:45.664Z,65.96
2022-10-10T13:50:21.548Z,66.17
2022-10-10T13:52:49.324Z,66.08
2022-10-10T13:55:25.297Z,65.86
2022-10-10T13:58:00.806Z,66.02
2022-10-10T14:00:32.780Z,66.27
2022-10-10T14:03:00.953Z,66.54
2022-10-10T14:05:31.774Z,67.00
2022-10-10T14:08:00.404Z,67.00
2022-10-10T14:10:33.684Z,67.72
2022-10-10T14:13:02.947Z,67.95
2022-10-10T14:15:34.750Z,67.89
2022-10-10T14:18:02.559Z,67.92
2022-10-10T14:20:30.348Z,68.14
2022-10-10T14:23:01.195Z,67.97
2022-10-10T14:25:28.995Z,68.07
2022-10-10T14:27:56.782Z,68.41
2022-10-10T14:30:26.701Z,68.40
2022-10-10T14:32:54.622Z,68.65
2022-10-10T14:35:22.639Z,68.44
2022-10-10T14:37:50.458Z,68.69
2022-10-10T14:40:20.433Z,68.61
2022-10-10T14:42:48.632Z,68.20
2022-10-10T14:45:18.419Z,68.45
2022-10-10T14:47:47.553Z,68.55
2022-10-10T14:50:17.594Z,68.60
2022-10-10T14:52:46.093Z,68.62
2022-10-10T14:55:14.830Z,68.30
2022-10-10T14:57:43.643Z,68.63
2022-10-10T15:00:16.362Z,68.63
2022-10-10T15:02:45.800Z,68.95
2022-10-10T15:05:15.793Z,69.50
2022-10-10T15:07:43.770Z,69.58
2022-10-10T15:13:02.058Z,70.04
2022-10-10T15:15:30.014Z,70.54
2022-10-10T15:17:58.688Z,70.23
2022-10-10T15:20:31.244Z,70.46
2022-10-10T15:23:00.109Z,70.57
2022-10-10T15:25:33.379Z,71.01
2022-10-10T15:28:02.512Z,70.85
2022-10-10T15:30:30.376Z,70.94
2022-10-10T15:32:58.234Z,71.36
2022-10-10T15:35:36.233Z,70.76
2022-10-10T15:38:15.924Z,70.58
2022-10-10T15:40:43.632Z,70.39
2022-10-10T15:43:11.520Z,70.52
2022-10-10T15:45:55.540Z,70.27
2022-10-10T15:48:24.257Z,70.32
2022-10-10T15:50:53.350Z,70.08
2022-10-10T15:53:21.256Z,70.33
2022-10-10T15:55:49.334Z,69.96
2022-10-10T15:58:17.439Z,69.75
2022-10-10T16:00:45.916Z,69.18
2022-10-10T16:03:13.802Z,69.15
2022-10-10T16:05:42.919Z,69.12
2022-10-10T16:08:12.514Z,68.28
2022-10-10T16:10:41.399Z,68.04
2022-10-10T16:13:09.191Z,68.00
2022-10-10T16:15:37.026Z,67.96
2022-10-10T16:18:04.830Z,67.60
2022-10-10T16:20:32.556Z,67.56
2022-10-10T16:23:00.276Z,67.26
2022-10-10T16:25:29.393Z,67.27
2022-10-10T16:27:57.198Z,67.03
2022-10-10T16:30:24.931Z,66.92
2022-10-10T16:32:52.679Z,66.90
2022-10-10T16:35:20.467Z,66.61
2022-10-10T16:37:48.245Z,65.99
2022-10-10T16:40:15.963Z,65.56
2022-10-10T16:42:45.302Z,64.86
2022-10-10T16:45:13.115Z,64.44
2022-10-10T16:47:40.849Z,64.17
2022-10-10T16:50:09.276Z,64.14
2022-10-10T16:52:38.320Z,64.23
2022-10-10T16:55:07.947Z,64.41
2022-10-10T16:57:36.393Z,64.90
2022-10-10T17:00:07.351Z,65.12
2022-10-10T17:02:35.521Z,65.03
2022-10-10T17:05:03.226Z,65.06
2022-10-10T17:07:31.041Z,65.18
2022-10-10T17:09:59.038Z,65.12
2022-10-10T17:12:26.845Z,65.45
2022-10-10T17:14:54.576Z,65.26
2022-10-10T17:17:23.819Z,65.49
2022-10-10T17:19:51.609Z,65.55
2022-10-10T17:22:19.917Z,65.65
2022-10-10T17:24:47.735Z,65.79
2022-10-10T17:27:15.508Z,65.97
2022-10-10T17:29:43.393Z,65.88
2022-10-10T17:32:11.134Z,65.55
2022-10-10T17:34:40.365Z,65.38
2022-10-10T17:37:08.317Z,65.78
2022-10-10T17:39:36.107Z,65.94
2022-10-10T17:42:05.198Z,65.72
2022-10-10T17:44:39.101Z,65.46
2022-10-10T17:47:10.062Z,65.43
2022-10-10T17:49:37.986Z,65.78
2022-10-10T17:52:07.185Z,65.61
2022-10-10T17:54:35.011Z,65.86
2022-10-10T17:57:02.768Z,65.38
2022-10-10T17:59:31.398Z,64.85
2022-10-10T18:01:59.108Z,64.11
2022-10-10T18:04:26.823Z,63.55
2022-10-10T18:06:55.027Z,62.95
2022-10-10T18:09:24.167Z,62.44
2022-10-10T18:11:52.043Z,62.43
2022-10-10T18:14:23.608Z,62.60
2022-10-10T18:16:51.512Z,62.66
2022-10-10T18:19:19.329Z,62.87
2022-10-10T18:21:47.671Z,63.27
2022-10-10T18:24:15.476Z,63.39
2022-10-10T18:26:44.892Z,63.56
2022-10-10T18:29:12.810Z,63.37
2022-10-10T18:31:40.519Z,63.77
2022-10-10T18:34:08.415Z,63.69
2022-10-10T18:36:37.749Z,63.61
2022-10-10T18:39:08.378Z,63.64
2022-10-10T18:41:36.543Z,63.96
2022-10-10T18:44:07.860Z,63.81
2022-10-10T18:46:36.340Z,63.67
2022-10-10T18:49:05.487Z,63.81
2022-10-10T18:51:33.651Z,63.81
2022-10-10T18:54:03.867Z,63.96
2022-10-10T18:56:33.700Z,63.91
2022-10-10T18:59:04.612Z,63.95
2022-10-10T19:01:36.492Z,63.93
2022-10-10T19:04:05.860Z,63.89
2022-10-10T19:06:33.700Z,63.55
2022-10-10T19:09:02.831Z,63.62
2022-10-10T19:11:32.376Z,63.75
2022-10-10T19:14:02.864Z,63.73
2022-10-10T19:16:31.601Z,63.86
2022-10-10T19:19:01.988Z,63.74
2022-10-10T19:21:31.968Z,63.59
2022-10-10T19:24:00.185Z,63.50
2022-10-10T19:26:33.399Z,64.00
2022-10-10T19:29:05.793Z,63.48
2022-10-10T19:31:34.505Z,63.30
2022-10-10T19:34:03.836Z,63.24
2022-10-10T19:36:31.630Z,63.65
2022-10-10T19:39:01.002Z,63.56
2022-10-10T19:41:29.760Z,63.47
2022-10-10T19:43:58.712Z,63.51
2022-10-10T19:46:28.020Z,63.29
2022-10-10T19:48:57.994Z,63.42
2022-10-10T19:51:29.220Z,63.24
2022-10-10T19:53:57.379Z,63.12
2022-10-10T19:56:26.269Z,63.30
2022-10-10T19:58:55.542Z,63.19
2022-10-10T20:01:28.986Z,62.98
2022-10-10T20:03:58.563Z,62.80
2022-10-10T20:06:28.643Z,62.99
2022-10-10T20:08:57.016Z,62.67
2022-10-10T20:11:26.491Z,62.96
2022-10-10T20:13:55.785Z,62.76
2022-10-10T20:16:26.577Z,62.75
2022-10-10T20:18:56.325Z,62.83
2022-10-10T20:21:29.094Z,62.63
2022-10-10T20:24:01.371Z,62.44
2022-10-10T20:26:29.304Z,62.38
2022-10-10T20:28:57.824Z,62.28
2022-10-10T20:31:27.889Z,62.07
2022-10-10T20:33:58.279Z,62.10
2022-10-10T20:36:27.038Z,62.22
2022-10-10T20:38:56.142Z,62.31
2022-10-10T20:41:27.334Z,62.33
2022-10-10T20:43:58.221Z,62.30
2022-10-10T20:46:27.565Z,62.08
2022-10-10T20:48:55.468Z,62.17
2022-10-10T20:51:23.812Z,62.07
2022-10-10T20:53:57.264Z,62.14
2022-10-10T20:56:27.095Z,61.76
2022-10-10T20:58:55.569Z,61.62
2022-10-10T21:01:25.315Z,61.66
2022-10-10T21:03:53.120Z,61.46
2022-10-10T21:06:23.011Z,61.84
2022-10-10T21:08:51.340Z,61.26
2022-10-10T21:11:19.449Z,61.18
2022-10-10T21:13:54.193Z,61.29
2022-10-10T21:16:22.440Z,61.28
2022-10-10T21:18:57.572Z,61.12
2022-10-10T21:21:26.951Z,61.02
2022-10-10T21:23:56.448Z,61.50
2022-10-10T21:26:26.280Z,61.42
2022-10-10T21:28:57.332Z,60.92
2022-10-10T21:31:27.907Z,60.90
2022-10-10T21:33:56.388Z,60.96
2022-10-10T21:36:25.848Z,60.85
2022-10-10T21:38:53.971Z,60.96
2022-10-10T21:41:22.595Z,61.29
2022-10-10T21:43:52.898Z,61.11
2022-10-10T21:46:24.361Z,60.95
2022-10-10T21:48:53.125Z,60.95
2022-10-10T21:51:21.483Z,60.93
2022-10-10T21:53:49.960Z,60.65
2022-10-10T21:56:17.724Z,60.81
2022-10-10T21:58:46.260Z,60.79
2022-10-10T22:01:16.133Z,60.49
2022-10-10T22:03:46.382Z,60.59
2022-10-10T22:06:16.184Z,60.72
2022-10-10T22:08:44.540Z,60.68
2022-10-10T22:11:14.695Z,60.70
2022-10-10T22:13:43.099Z,60.50
2022-10-10T22:16:11.703Z,60.28
2022-10-10T22:18:40.339Z,60.82
2022-10-10T22:21:12.352Z,60.30
2022-10-10T22:23:40.587Z,60.28
2022-10-10T22:26:09.960Z,60.21
2022-10-10T22:28:37.955Z,60.28
2022-10-10T22:31:06.572Z,60.51
2022-10-10T22:33:34.412Z,60.14
2022-10-10T22:36:02.590Z,59.85
2022-10-10T22:38:32.099Z,60.10
2022-10-10T22:40:59.901Z,59.94
2022-10-10T22:43:27.598Z,59.72
2022-10-10T22:45:55.710Z,59.84
2022-10-10T22:48:23.485Z,60.06
2022-10-10T22:50:59.887Z,59.60
2022-10-10T22:53:27.623Z,59.76
2022-10-10T22:55:57.043Z,59.64
2022-10-10T22:58:25.260Z,59.77
2022-10-10T23:00:53.524Z,60.06
2022-10-10T23:03:21.580Z,60.06
2022-10-10T23:05:49.527Z,59.73
2022-10-10T23:08:17.281Z,59.62
2022-10-10T23:10:45.649Z,59.56
2022-10-10T23:13:14.740Z,59.97
2022-10-10T23:15:42.482Z,59.68
2022-10-10T23:18:10.229Z,59.65
2022-10-10T23:20:38.106Z,59.42
2022-10-10T23:23:05.998Z,59.79
2022-10-10T23:25:33.740Z,59.33
2022-10-10T23:28:01.559Z,59.21
2022-10-10T23:30:30.649Z,59.51
2022-10-10T23:32:58.378Z,59.54
2022-10-10T23:35:26.369Z,59.25
2022-10-10T23:37:55.355Z,59.24
2022-10-10T23:40:23.228Z,59.01
2022-10-10T23:42:51.081Z,58.89
2022-10-10T23:45:19.297Z,59.33
2022-10-10T23:47:48.444Z,59.25
2022-10-10T23:50:16.362Z,58.79
2022-10-10T23:52:44.202Z,59.13
2022-10-10T23:55:11.946Z,58.65
2022-10-10T23:57:39.691Z,58.87
